Time;durP1;ratioP1;P1;durP2;ratioP2;P2;SDS_P1;SDS_P2;PMS_P1;PMS_P2;Temp;Humidity;BMP_temperature;BMP_pressure;BME280_temperature;BME280_humidity;BME280_pressure;Samples;Min_cycle;Max_cycle;Signal;HPM_P1;HPM_P2
2023/10/26 00:03:28;;;;;;;9.55;5.12;;;;;;;14.74;67.67;98164.22;7737033;32;37922;-81
2023/10/26 00:07:44;;;;;;;12.30;5.47;;;;;;;15.02;66.68;98147.94;7737106;32;37020;-80
2023/10/26 00:12:00;;;;;;;11.35;5.00;;;;;;;14.92;66.86;98142.91;7737096;32;40251;-81
2023/10/26 00:16:17;;;;;;;12.50;5.32;;;;;;;14.78;67.41;98147.88;7737341;32;40613;-81
2023/10/26 00:20:33;;;;;;;8.63;4.85;;;;;;;14.83;66.92;98133.94;7740002;32;37869;-81
2023/10/26 00:24:50;;;;;;;9.13;4.97;;;;;;;14.92;66.60;98133.84;7740098;32;38081;-81
2023/10/26 00:29:06;;;;;;;8.85;5.40;;;;;;;14.88;66.37;98125.50;7740050;32;40059;-81
2023/10/26 00:33:23;;;;;;;10.38;4.65;;;;;;;14.64;67.19;98127.06;7739977;32;39906;-81
2023/10/26 00:37:39;;;;;;;12.40;5.18;;;;;;;14.60;67.36;98126.13;7739913;32;37542;-81
2023/10/26 00:41:56;;;;;;;9.43;4.72;;;;;;;14.62;67.50;98126.59;7726039;32;37823;-81
2023/10/26 00:46:12;;;;;;;9.70;4.90;;;;;;;14.49;67.66;98129.59;7718589;32;235762;-82
2023/10/26 00:50:28;;;;;;;9.40;4.95;;;;;;;14.20;68.83;98129.41;7725768;32;39913;-82
2023/10/26 00:54:45;;;;;;;7.50;4.55;;;;;;;14.28;68.62;98120.31;7725630;32;37630;-81
2023/10/26 00:59:03;;;;;;;11.68;5.20;;;;;;;14.53;67.39;98117.63;7739700;32;37605;-81
2023/10/26 01:03:19;;;;;;;9.95;4.53;;;;;;;14.26;67.96;98105.31;7739495;32;39060;-80
2023/10/26 01:07:36;;;;;;;7.00;4.55;;;;;;;14.42;67.45;98103.56;7739500;32;40869;-81
2023/10/26 01:11:54;;;;;;;7.60;4.80;;;;;;;14.32;67.74;98105.94;7738217;32;38118;-81
2023/10/26 01:16:10;;;;;;;10.20;5.15;;;;;;;14.31;67.31;98107.06;7739355;32;37042;-81
2023/10/26 01:20:26;;;;;;;9.52;4.80;;;;;;;14.22;67.10;98112.63;7739377;32;40461;-80
2023/10/26 01:24:43;;;;;;;8.07;4.10;;;;;;;14.27;66.88;98106.94;7739114;32;39757;-81
2023/10/26 01:29:03;;;;;;;11.18;5.30;;;;;;;14.37;65.54;98095.53;7739150;32;37825;-80
2023/10/26 01:33:20;;;;;;;10.38;5.10;;;;;;;14.20;66.65;98096.50;7725359;32;37241;-81
2023/10/26 01:37:39;;;;;;;9.70;5.53;;;;;;;14.25;66.68;98090.03;7739097;32;39918;-81
2023/10/26 01:41:55;;;;;;;10.23;5.82;;;;;;;14.20;67.30;98101.19;7739029;32;42309;-82
2023/10/26 01:46:11;;;;;;;11.07;4.90;;;;;;;13.98;68.08;98094.94;7738798;32;38614;-81
2023/10/26 01:50:28;;;;;;;9.10;5.10;;;;;;;14.22;67.58;98098.91;7739003;32;37488;-81
2023/10/26 01:54:45;;;;;;;10.10;5.32;;;;;;;14.21;67.50;98086.34;7738781;32;40032;-81
2023/10/26 01:59:01;;;;;;;10.43;5.62;;;;;;;14.23;67.16;98084.88;7738535;32;39645;-81
2023/10/26 02:03:18;;;;;;;10.30;4.75;;;;;;;14.21;66.87;98089.09;7738713;32;38658;-82
2023/10/26 02:07:34;;;;;;;11.70;5.80;;;;;;;13.96;68.05;98090.94;7738780;32;37102;-82
2023/10/26 02:11:51;;;;;;;10.95;5.68;;;;;;;13.88;68.56;98092.59;7738792;32;40116;-83
2023/10/26 02:16:07;;;;;;;9.90;5.60;;;;;;;13.79;69.20;98092.66;7738860;32;39640;-82
2023/10/26 02:20:23;;;;;;;12.10;5.22;;;;;;;13.95;68.56;98089.31;7738485;32;38819;-82
2023/10/26 02:24:43;;;;;;;9.50;5.30;;;;;;;14.03;67.79;98083.78;7738616;32;37175;-82
2023/10/26 02:28:59;;;;;;;14.65;6.20;;;;;;;13.83;68.00;98079.94;7724631;32;39400;-81
2023/10/26 02:33:15;;;;;;;8.18;4.85;;;;;;;13.63;68.12;98095.22;7738506;32;40835;-81
2023/10/26 02:37:38;;;;;;;9.90;5.55;;;;;;;14.00;66.35;98080.91;7738442;32;38723;-81
2023/10/26 02:41:54;;;;;;;13.62;5.53;;;;;;;13.83;66.31;98085.41;7737356;32;37227;-81
2023/10/26 02:46:10;;;;;;;10.88;5.60;;;;;;;13.70;66.57;98103.69;7738313;32;39418;-80
2023/10/26 02:50:27;;;;;;;9.60;5.12;;;;;;;13.67;66.67;98103.56;7738307;32;40983;-81
2023/10/26 02:54:45;;;;;;;10.80;5.55;;;;;;;13.74;65.54;98084.66;7737987;32;38571;-81
2023/10/26 02:59:01;;;;;;;9.95;5.00;;;;;;;13.39;67.37;98086.84;7738264;32;37292;-82
2023/10/26 03:03:18;;;;;;;8.52;4.45;;;;;;;13.64;66.51;98090.53;7738193;32;39379;-81
2023/10/26 03:07:34;;;;;;;8.02;4.70;;;;;;;13.78;65.61;98084.78;7738110;32;40740;-81
2023/10/26 03:11:51;;;;;;;9.90;5.32;;;;;;;13.65;66.11;98089.41;7737749;32;37907;-82
2023/10/26 03:16:07;;;;;;;26.00;5.93;;;;;;;13.64;65.69;98085.06;7738014;32;38126;-82
2023/10/26 03:20:24;;;;;;;11.55;5.78;;;;;;;13.47;66.50;98095.00;7738011;32;39404;-82
2023/10/26 03:24:40;;;;;;;11.55;5.50;;;;;;;13.77;65.30;98097.69;7737794;32;39985;-82
2023/10/26 03:28:56;;;;;;;12.35;5.55;;;;;;;13.60;65.46;98089.59;7737539;32;37936;-82
2023/10/26 03:33:13;;;;;;;8.60;5.37;;;;;;;13.49;65.97;98095.47;7737898;32;37884;-82
2023/10/26 03:37:29;;;;;;;9.45;5.18;;;;;;;13.48;65.77;98080.16;7737536;32;39305;-82
2023/10/26 03:41:45;;;;;;;8.85;4.40;;;;;;;13.55;65.40;98076.12;7737383;32;40984;-82
2023/10/26 03:46:02;;;;;;;12.30;5.03;;;;;;;13.61;65.13;98080.28;7737346;32;37974;-81
2023/10/26 03:50:21;;;;;;;8.88;4.95;;;;;;;13.46;65.62;98087.91;7736678;32;37051;-81
2023/10/26 03:54:37;;;;;;;8.88;4.47;;;;;;;13.56;65.72;98088.69;7737108;32;39442;-81
2023/10/26 03:58:53;;;;;;;7.55;4.82;;;;;;;13.53;65.20;98082.72;7737324;32;40850;-82
2023/10/26 04:03:10;;;;;;;6.65;4.18;;;;;;;13.46;65.35;98090.66;7737059;32;38038;-81
2023/10/26 04:07:27;;;;;;;8.82;4.72;;;;;;;13.63;65.03;98089.75;7737180;32;37042;-81
2023/10/26 04:11:44;;;;;;;9.00;5.35;;;;;;;13.45;65.94;98100.03;7737051;32;39360;-81
2023/10/26 04:16:04;;;;;;;26.87;5.80;;;;;;;13.63;65.86;98092.47;7723307;32;40550;-81
2023/10/26 04:20:21;;;;;;;16.92;5.20;;;;;;;13.19;68.30;98110.28;7736784;32;38760;-82
2023/10/26 04:24:37;;;;;;;45.53;6.57;;;;;;;13.48;67.10;98102.06;7737159;32;37651;-81
2023/10/26 04:28:53;;;;;;;21.17;5.65;;;;;;;13.50;67.09;98104.47;7736398;32;40203;-81
2023/10/26 04:33:10;;;;;;;11.43;5.22;;;;;;;13.65;67.01;98103.09;7736495;32;39933;-81
2023/10/26 04:37:26;;;;;;;17.33;5.60;;;;;;;13.48;67.65;98099.34;7736230;32;37829;-81
2023/10/26 04:41:43;;;;;;;9.07;5.18;;;;;;;13.17;68.88;98099.66;7735944;32;37163;-81
2023/10/26 04:45:59;;;;;;;10.13;4.90;;;;;;;13.43;68.20;98090.53;7736103;32;39338;-81
2023/10/26 04:50:16;;;;;;;9.48;4.97;;;;;;;13.46;68.20;98089.88;7735980;32;40867;-82
2023/10/26 04:54:32;;;;;;;11.07;5.18;;;;;;;13.52;68.01;98089.34;7735679;32;37835;-81
2023/10/26 04:58:48;;;;;;;56.15;7.20;;;;;;;13.54;68.20;98086.28;7735814;32;37796;-81
2023/10/26 05:03:05;;;;;;;10.43;5.62;;;;;;;13.30;68.88;98092.34;7737043;32;39190;-81
2023/10/26 05:07:21;;;;;;;9.55;4.85;;;;;;;13.52;68.42;98078.38;7739368;32;40827;-81
2023/10/26 05:11:37;;;;;;;10.07;5.70;;;;;;;13.70;68.07;98083.72;7739071;32;38115;-81
2023/10/26 05:15:53;;;;;;;9.80;5.95;;;;;;;13.37;68.78;98089.13;7739364;32;37404;-82
2023/10/26 05:20:10;;;;;;;14.32;7.25;;;;;;;13.52;68.22;98089.34;7739033;32;39352;-82
2023/10/26 05:24:27;;;;;;;9.25;5.87;;;;;;;13.35;68.87;98105.88;7739263;32;39746;-82
2023/10/26 05:28:44;;;;;;;12.93;6.10;;;;;;;13.48;68.45;98098.53;7738266;32;38564;-81
2023/10/26 05:33:00;;;;;;;11.80;5.18;;;;;;;13.56;68.35;98105.91;7737239;32;37083;-80
2023/10/26 05:37:16;;;;;;;7.70;4.90;;;;;;;13.57;68.63;98106.69;7733291;32;40118;-81
2023/10/26 05:41:34;;;;;;;9.55;4.28;;;;;;;13.75;67.94;98121.88;7738221;32;40744;-82
2023/10/26 05:45:54;;;;;;;10.73;4.60;;;;;;;13.68;68.30;98124.34;7738605;32;38717;-82
2023/10/26 05:50:10;;;;;;;9.93;4.70;;;;;;;13.93;67.60;98127.22;7736358;32;37206;-80
2023/10/26 05:54:27;;;;;;;10.25;4.70;;;;;;;13.96;68.28;98135.56;7736714;32;39166;-80
2023/10/26 05:58:43;;;;;;;7.95;5.12;;;;;;;14.07;68.44;98144.19;7735730;32;39920;-82
2023/10/26 06:02:59;;;;;;;7.82;4.43;;;;;;;14.00;68.87;98152.94;7736309;32;38857;-81
2023/10/26 06:07:16;;;;;;;6.97;3.90;;;;;;;14.07;68.71;98157.88;7737585;32;37333;-78
2023/10/26 06:11:32;;;;;;;15.02;4.50;;;;;;;14.64;69.95;98159.97;7736881;32;39434;-77
2023/10/26 06:15:48;;;;;;;9.23;4.32;;;;;;;14.84;69.12;98163.00;7735737;32;40012;-84
2023/10/26 06:20:05;;;;;;;7.05;4.00;;;;;;;14.65;68.62;98172.53;7738421;32;37641;-83
2023/10/26 06:24:21;;;;;;;7.85;4.03;;;;;;;14.57;67.31;98176.16;7738036;32;37026;-85
2023/10/26 06:28:38;;;;;;;6.97;4.07;;;;;;;14.51;67.53;98166.53;7737008;32;39402;-84
2023/10/26 06:32:54;;;;;;;9.63;3.85;;;;;;;14.62;67.15;98164.97;7735267;32;40144;-83
2023/10/26 06:37:11;;;;;;;20.30;14.50;;;;;;;14.78;66.60;98159.69;7733666;32;37707;-83
2023/10/26 06:41:27;;;;;;;14.98;7.93;;;;;;;14.79;66.89;98155.78;7737245;32;36992;-80
2023/10/26 06:45:43;;;;;;;10.85;4.70;;;;;;;14.75;67.04;98165.03;7738410;32;40047;-84
2023/10/26 06:49:59;;;;;;;12.20;5.25;;;;;;;14.80;66.45;98178.53;7736423;32;40831;-82
2023/10/26 06:54:16;;;;;;;9.27;5.62;;;;;;;14.69;67.16;98178.16;7738162;32;38706;-84
2023/10/26 06:58:32;;;;;;;12.88;4.78;;;;;;;14.77;67.63;98181.97;7738403;32;37165;-83
2023/10/26 07:02:49;;;;;;;10.70;5.03;;;;;;;14.80;67.50;98203.22;7736503;32;39199;-84
2023/10/26 07:07:05;;;;;;;9.35;4.87;;;;;;;14.53;68.63;98208.13;7737266;32;40760;-83
2023/10/26 07:11:22;;;;;;;10.20;4.85;;;;;;;14.27;69.57;98200.13;7724317;32;38682;-83
2023/10/26 07:15:38;;;;;;;11.98;4.82;;;;;;;14.39;69.38;98196.66;7736389;32;37307;-82
2023/10/26 07:19:54;;;;;;;9.07;4.70;;;;;;;14.98;67.86;98201.87;7737628;32;40198;-84
2023/10/26 07:24:11;;;;;;;10.57;4.60;;;;;;;14.39;70.98;98200.19;7735567;32;39935;-84
2023/10/26 07:28:28;;;;;;;11.60;5.12;;;;;;;14.97;68.66;98225.00;7736150;32;37910;-83
2023/10/26 07:32:44;;;;;;;19.77;7.10;;;;;;;14.83;68.85;98221.75;7736744;32;38012;-85
2023/10/26 07:37:00;;;;;;;12.70;6.47;;;;;;;14.94;69.01;98203.72;7736455;32;39358;-83
2023/10/26 07:41:16;;;;;;;14.85;6.32;;;;;;;15.16;68.16;98199.75;7737614;32;39967;-83
2023/10/26 07:45:52;;;;;;;14.63;5.95;;;;;;;15.23;67.77;98210.19;7736712;32;38228;-83
2023/10/26 07:50:09;;;;;;;15.70;6.87;;;;;;;15.25;67.69;98229.84;7737478;32;37772;-82
2023/10/26 07:54:25;;;;;;;15.27;6.03;;;;;;;14.64;69.75;98231.28;7737426;32;39131;-82
2023/10/26 07:58:41;;;;;;;11.38;5.65;;;;;;;14.98;68.64;98229.31;7736450;32;40754;-82
2023/10/26 08:02:59;;;;;;;20.27;7.25;;;;;;;15.07;69.07;98223.75;7736047;32;38718;-81
2023/10/26 08:07:15;;;;;;;14.50;6.22;;;;;;;14.88;69.00;98245.41;7733062;32;37136;-79
2023/10/26 08:11:31;;;;;;;12.18;5.97;;;;;;;15.03;68.62;98242.84;7734478;32;39909;-80
2023/10/26 08:15:48;;;;;;;13.25;5.78;;;;;;;15.12;68.62;98234.50;7734559;32;40899;-83
2023/10/26 08:20:24;;;;;;;17.20;5.32;;;;;;;15.13;68.85;98232.59;7730676;32;39245;-81
2023/10/26 08:24:41;;;;;;;10.98;5.70;;;;;;;15.16;68.75;98229.97;7732428;32;37837;-84
2023/10/26 08:28:57;;;;;;;11.52;5.10;;;;;;;15.52;67.88;98224.84;7735516;32;40185;-83
2023/10/26 08:33:16;;;;;;;16.85;5.87;;;;;;;15.39;67.85;98230.31;7736546;32;39259;-83
2023/10/26 08:37:33;;;;;;;10.85;4.80;;;;;;;15.40;67.10;98236.59;7736734;32;37772;-82
2023/10/26 08:41:57;;;;;;;12.68;4.78;;;;;;;15.39;67.37;98238.56;7739924;32;36813;-83
2023/10/26 08:46:16;;;;;;;9.95;5.75;;;;;;;15.35;67.05;98225.84;7739621;32;39316;-83
2023/10/26 08:50:32;;;;;;;12.63;5.57;;;;;;;15.49;66.71;98231.81;7726274;32;38889;-82
2023/10/26 08:54:50;;;;;;;9.85;5.10;;;;;;;15.65;66.25;98233.91;7739510;32;37991;-75
2023/10/26 08:59:06;;;;;;;9.65;5.10;;;;;;;15.65;68.74;98229.19;7739726;32;37325;-82
2023/10/26 09:03:22;;;;;;;6.85;4.18;;;;;;;15.94;64.89;98235.63;7739663;32;39597;-81
2023/10/26 09:07:39;;;;;;;9.18;4.68;;;;;;;15.93;64.44;98229.31;7739637;32;40671;-81
2023/10/26 09:12:08;;;;;;;11.15;4.50;;;;;;;15.88;64.16;98215.81;7739403;32;38693;-80
2023/10/26 09:16:36;;;;;;;12.27;5.60;;;;;;;15.63;64.86;98244.44;7727157;32;37894;-80
2023/10/26 09:21:05;;;;;;;10.57;4.85;;;;;;;15.67;65.09;98235.13;7739457;32;39008;-77
2023/10/26 09:25:21;;;;;;;8.68;4.55;;;;;;;15.53;66.76;98243.72;7735637;32;39697;-81
2023/10/26 09:29:39;;;;;;;8.18;3.70;;;;;;;15.87;65.17;98238.16;7738639;32;37229;-76
2023/10/26 09:33:55;;;;;;;9.07;4.65;;;;;;;16.67;64.80;98234.63;7739294;32;37839;-77
2023/10/26 09:38:11;;;;;;;9.60;4.57;;;;;;;17.04;61.19;98230.91;7739245;32;39404;-76
2023/10/26 09:42:28;;;;;;;6.97;4.15;;;;;;;16.76;62.20;98233.69;7739040;32;40873;-76
2023/10/26 09:46:44;;;;;;;7.53;4.05;;;;;;;16.99;61.94;98228.41;7738788;32;38658;-76
2023/10/26 09:51:01;;;;;;;7.72;3.22;;;;;;;17.91;58.63;98212.63;7738004;32;37134;-77
2023/10/26 09:55:18;;;;;;;6.93;3.47;;;;;;;18.19;57.10;98212.47;7739003;32;39978;-75
2023/10/26 09:59:34;;;;;;;7.03;4.00;;;;;;;18.21;57.21;98220.38;7738967;32;40859;-75
2023/10/26 10:03:50;;;;;;;6.68;3.50;;;;;;;17.90;57.16;98216.56;7738828;32;37856;-76
2023/10/26 10:08:07;;;;;;;9.98;3.50;;;;;;;18.04;57.51;98209.75;7739069;32;37234;-81
2023/10/26 10:12:26;;;;;;;4.78;3.12;;;;;;;18.64;55.63;98210.22;7725016;32;39297;-84
2023/10/26 10:16:45;;;;;;;5.07;3.08;;;;;;;18.90;54.20;98195.78;7739084;32;40004;-81
2023/10/26 10:21:22;;;;;;;4.87;2.55;;;;;;;18.86;54.41;98205.16;7738647;32;38062;-82
2023/10/26 10:25:50;;;;;;;4.12;2.58;;;;;;;19.20;52.88;98194.34;7727136;32;38032;-82
2023/10/26 10:30:13;;;;;;;4.72;2.47;;;;;;;19.68;50.08;98200.25;7738703;32;40030;-82
2023/10/26 10:34:33;;;;;;;5.60;2.37;;;;;;;19.58;50.76;98193.38;7738645;32;40787;-82
2023/10/26 10:39:10;;;;;;;5.07;2.03;;;;;;;19.44;51.25;98195.94;7738658;32;37942;-82
2023/10/26 10:43:40;;;;;;;6.50;2.50;;;;;;;19.96;48.60;98182.53;7726948;32;36989;-82
2023/10/26 10:47:57;;;;;;;5.90;2.78;;;;;;;20.19;47.03;98191.53;7738345;32;40116;-82
2023/10/26 10:52:14;;;;;;;4.85;2.03;;;;;;;21.01;44.57;98172.31;7738384;32;40646;-81
2023/10/26 10:56:44;;;;;;;6.62;2.10;;;;;;;21.49;43.33;98171.59;7738240;32;37837;-83
2023/10/26 11:01:00;;;;;;;5.18;1.65;;;;;;;21.21;42.92;98166.56;7737806;32;37048;-81
2023/10/26 11:05:16;;;;;;;3.58;1.80;;;;;;;21.64;45.50;98155.84;7738092;32;40222;-81
2023/10/26 11:09:40;;;;;;;5.72;1.92;;;;;;;21.76;41.35;98152.75;7738099;32;40134;-78
2023/10/26 11:14:06;;;;;;;3.73;1.80;;;;;;;21.86;41.93;98154.00;7738144;32;37839;-77
2023/10/26 11:18:22;;;;;;;3.83;1.83;;;;;;;22.39;39.75;98146.38;7738167;32;37070;-79
2023/10/26 11:22:39;;;;;;;3.05;1.80;;;;;;;22.29;38.36;98139.59;7724287;32;40124;-80
2023/10/26 11:27:12;;;;;;;4.15;1.80;;;;;;;21.79;38.74;98142.09;7737868;32;40520;-78
2023/10/26 11:31:41;;;;;;;5.62;2.22;;;;;;;21.79;39.31;98145.62;7737895;32;37057;-81
2023/10/26 11:35:58;;;;;;;3.50;2.12;;;;;;;21.28;40.22;98161.06;7737897;32;37141;-81
2023/10/26 11:40:15;;;;;;;5.78;2.25;;;;;;;21.77;39.25;98153.56;7723955;32;40104;-79
2023/10/26 11:44:33;;;;;;;6.40;2.53;;;;;;;21.75;38.08;98151.16;7737487;32;40896;-81
2023/10/26 11:48:52;;;;;;;3.85;2.10;;;;;;;21.74;40.47;98149.56;7737398;32;36871;-82
2023/10/26 11:53:09;;;;;;;4.65;2.35;;;;;;;22.23;38.72;98147.47;7737165;32;37312;-83
2023/10/26 11:57:25;;;;;;;6.82;2.75;;;;;;;22.45;37.19;98134.47;7737498;32;39882;-80
2023/10/26 12:01:42;;;;;;;4.45;2.85;;;;;;;22.00;38.64;98130.31;7737263;32;40186;-75
2023/10/26 12:05:58;;;;;;;6.28;2.80;;;;;;;22.46;38.94;98146.41;7737192;32;37904;-74
2023/10/26 12:10:16;;;;;;;3.92;2.70;;;;;;;22.48;38.65;98139.25;7737103;32;37747;-76
2023/10/26 12:14:32;;;;;;;5.05;2.72;;;;;;;22.93;38.47;98138.94;7736015;32;38688;-75
2023/10/26 12:18:49;;;;;;;4.82;2.55;;;;;;;23.21;37.32;98143.75;7737039;32;39626;-74
2023/10/26 12:23:05;;;;;;;3.28;1.80;;;;;;;23.04;36.79;98139.78;7736628;32;38534;-75
2023/10/26 12:27:22;;;;;;;6.03;2.08;;;;;;;23.63;35.78;98147.72;7736815;32;36986;-75
2023/10/26 12:31:39;;;;;;;4.43;2.00;;;;;;;23.34;35.63;98151.72;7736504;32;39354;-78
2023/10/26 12:35:55;;;;;;;6.03;2.00;;;;;;;23.21;34.69;98149.31;7736022;32;40903;-76
2023/10/26 12:40:12;;;;;;;2.33;1.60;;;;;;;23.45;34.76;98146.94;7736353;32;37947;-77
2023/10/26 12:44:28;;;;;;;2.83;1.70;;;;;;;23.51;33.64;98137.03;7736300;32;37762;-80
2023/10/26 12:48:44;;;;;;;5.60;1.90;;;;;;;23.55;34.13;98146.12;7722361;32;39379;-80
2023/10/26 12:53:00;;;;;;;4.30;1.70;;;;;;;23.63;34.87;98135.81;7736020;32;40878;-79
2023/10/26 12:57:17;;;;;;;2.28;1.67;;;;;;;24.72;33.46;98132.28;7735908;32;38050;-80
2023/10/26 13:01:33;;;;;;;2.55;1.50;;;;;;;24.52;32.52;98125.59;7735808;32;37699;-81
2023/10/26 13:05:49;;;;;;;2.37;1.50;;;;;;;24.50;31.43;98131.56;7735706;32;40292;-82
2023/10/26 13:10:07;;;;;;;3.75;1.60;;;;;;;24.40;32.10;98131.63;7735664;32;40202;-77
2023/10/26 13:14:23;;;;;;;2.65;1.48;;;;;;;23.52;34.43;98130.25;7718826;32;38513;-78
2023/10/26 13:18:39;;;;;;;1.55;1.17;;;;;;;23.56;33.02;98130.25;7735535;32;36078;-79
2023/10/26 13:23:01;;;;;;;3.67;1.50;;;;;;;22.75;34.24;98133.37;7735840;32;40081;-78
2023/10/26 13:27:17;;;;;;;3.62;1.62;;;;;;;23.12;33.96;98140.59;7737225;32;39634;-77
2023/10/26 13:31:33;;;;;;;3.05;1.67;;;;;;;23.86;33.62;98143.75;7738277;32;38700;-77
2023/10/26 13:35:49;;;;;;;3.90;1.55;;;;;;;23.84;33.67;98135.00;7739064;32;37815;-78
2023/10/26 13:40:06;;;;;;;2.95;1.87;;;;;;;23.94;32.77;98128.63;7737053;32;40090;-79
2023/10/26 13:44:24;;;;;;;5.28;1.70;;;;;;;22.60;34.62;98149.19;7737767;32;39744;-78
2023/10/26 13:48:40;;;;;;;3.45;1.95;;;;;;;24.31;33.36;98134.84;7719698;32;37859;-80
2023/10/26 13:52:57;;;;;;;1.90;1.60;;;;;;;24.25;33.09;98126.13;7738868;32;37357;-75
2023/10/26 13:57:13;;;;;;;3.12;1.62;;;;;;;23.60;33.47;98120.72;7725375;32;39300;-77
2023/10/26 14:01:30;;;;;;;1.67;1.40;;;;;;;24.11;34.69;98113.06;7739041;32;40037;-76
2023/10/26 14:05:51;;;;;;;5.78;1.95;;;;;;;24.00;33.50;98121.44;7733702;32;37801;-75
2023/10/26 14:10:08;;;;;;;4.32;1.65;;;;;;;23.62;34.49;98137.78;7737039;32;36624;-78
2023/10/26 14:14:25;;;;;;;3.55;1.80;;;;;;;23.68;34.27;98137.38;7738418;32;40204;-79
2023/10/26 14:18:41;;;;;;;4.05;1.80;;;;;;;23.18;33.98;98130.69;7737909;32;39655;-78
2023/10/26 14:22:57;;;;;;;5.15;2.15;;;;;;;22.95;35.24;98131.00;7738206;32;38023;-79
2023/10/26 14:27:17;;;;;;;3.12;1.92;;;;;;;22.83;36.16;98118.28;7737480;32;36795;-78
2023/10/26 14:31:33;;;;;;;4.90;1.77;;;;;;;22.85;36.25;98118.72;7738413;32;39752;-80
2023/10/26 14:35:51;;;;;;;3.08;1.80;;;;;;;22.53;36.48;98126.97;7737235;32;39603;-79
2023/10/26 14:40:08;;;;;;;3.85;2.08;;;;;;;22.85;36.28;98120.69;7737563;32;36691;-78
2023/10/26 14:44:24;;;;;;;2.55;1.90;;;;;;;22.93;36.34;98132.59;7737805;32;38226;-79
2023/10/26 14:48:41;;;;;;;2.97;1.90;;;;;;;21.98;37.57;98129.91;7737289;32;39856;-78
2023/10/26 14:52:57;;;;;;;5.03;2.33;;;;;;;21.64;38.08;98136.44;7737836;32;39976;-78
2023/10/26 14:57:14;;;;;;;3.33;2.20;;;;;;;21.46;39.75;98130.78;7737057;32;37901;-79
2023/10/26 15:01:30;;;;;;;5.78;2.80;;;;;;;21.46;41.69;98122.44;7737533;32;37511;-79
2023/10/26 15:05:47;;;;;;;5.87;2.47;;;;;;;21.43;40.70;98127.94;7737471;32;39978;-79
2023/10/26 15:10:04;;;;;;;3.50;2.12;;;;;;;21.21;42.82;98125.00;7737080;32;40833;-79
2023/10/26 15:14:39;;;;;;;5.45;2.03;;;;;;;21.01;42.55;98113.38;7737408;32;38467;-78
2023/10/26 15:18:56;;;;;;;5.07;2.20;;;;;;;20.67;44.27;98116.19;7736568;32;37044;-79
2023/10/26 15:23:12;;;;;;;5.05;2.00;;;;;;;20.41;44.61;98125.37;7723786;32;39342;-79
2023/10/26 15:27:28;;;;;;;5.10;2.12;;;;;;;20.42;42.33;98133.31;7722835;32;39850;-79
2023/10/26 15:31:47;;;;;;;3.33;2.03;;;;;;;20.41;42.37;98148.31;7737040;32;38050;-79
2023/10/26 15:36:04;;;;;;;6.62;2.37;;;;;;;20.00;42.95;98145.44;7737044;32;37842;-79
2023/10/26 15:40:20;;;;;;;5.57;2.87;;;;;;;20.14;42.90;98149.56;7736870;32;40271;-78
2023/10/26 15:44:38;;;;;;;6.75;4.07;;;;;;;19.75;44.64;98153.41;7736966;32;40581;-79
2023/10/26 15:48:55;;;;;;;6.57;3.25;;;;;;;19.68;46.01;98167.09;7736247;32;38629;-80
2023/10/26 15:53:32;;;;;;;3.72;1.95;;;;;;;19.59;46.53;98163.78;7737035;32;38660;-79
2023/10/26 15:57:49;;;;;;;4.15;2.20;;;;;;;19.45;48.19;98172.63;7736404;32;40167;-78
2023/10/26 16:02:06;;;;;;;5.90;2.53;;;;;;;19.30;45.43;98172.41;7736744;32;39648;-78
2023/10/26 16:06:22;;;;;;;5.10;2.12;;;;;;;19.36;46.53;98167.38;7735975;32;37866;-79
2023/10/26 16:10:38;;;;;;;4.40;1.62;;;;;;;19.30;47.05;98160.56;7736019;32;38004;-78
2023/10/26 16:14:55;;;;;;;3.20;2.00;;;;;;;19.31;47.11;98167.69;7736946;32;39359;-80
2023/10/26 16:19:11;;;;;;;2.35;1.65;;;;;;;19.29;46.74;98158.97;7736255;32;39657;-79
2023/10/26 16:23:28;;;;;;;3.10;1.60;;;;;;;19.19;45.75;98157.63;7729239;32;38125;-79
2023/10/26 16:27:44;;;;;;;3.25;2.10;;;;;;;19.14;45.83;98147.69;7722196;32;36733;-79
2023/10/26 16:32:03;;;;;;;7.78;1.90;;;;;;;19.11;46.69;98151.19;7736241;32;39047;-79
2023/10/26 16:36:23;;;;;;;3.60;2.00;;;;;;;18.85;47.88;98151.09;7721445;32;40787;-79
2023/10/26 16:40:39;;;;;;;4.47;1.60;;;;;;;19.01;46.38;98146.28;7736284;32;38744;-80
2023/10/26 16:44:58;;;;;;;4.28;1.77;;;;;;;18.91;47.80;98149.66;7735127;32;36984;-79
2023/10/26 16:49:14;;;;;;;3.20;1.70;;;;;;;18.99;48.14;98145.03;7735797;32;39423;-78
2023/10/26 16:53:31;;;;;;;4.85;1.70;;;;;;;18.86;48.62;98149.94;7735028;32;39619;-79
2023/10/26 16:57:48;;;;;;;4.75;1.80;;;;;;;18.75;49.21;98149.72;7735965;32;37951;-78
2023/10/26 17:02:04;;;;;;;3.28;1.35;;;;;;;18.71;49.96;98144.16;7739219;32;37101;-79
2023/10/26 17:06:21;;;;;;;7.95;1.62;;;;;;;18.67;49.91;98148.78;7738272;32;40146;-78
2023/10/26 17:10:39;;;;;;;5.15;1.60;;;;;;;18.67;49.73;98132.22;7739519;32;39724;-78
2023/10/26 17:14:55;;;;;;;2.58;1.60;;;;;;;18.60;50.05;98126.56;7738231;32;37586;-78
2023/10/26 17:19:11;;;;;;;1.95;1.42;;;;;;;18.44;50.06;98126.69;7739535;32;37323;-78
2023/10/26 17:23:28;;;;;;;2.15;1.58;;;;;;;18.43;50.75;98127.03;7738401;32;39322;-78
2023/10/26 17:27:44;;;;;;;1.67;1.42;;;;;;;18.57;50.02;98116.25;7738671;32;40007;-79
2023/10/26 17:32:01;;;;;;;5.87;1.80;;;;;;;18.44;50.00;98118.41;7738780;32;37815;-79
2023/10/26 17:36:18;;;;;;;2.10;1.58;;;;;;;18.31;50.65;98114.19;7738715;32;38053;-78
2023/10/26 17:40:34;;;;;;;3.17;1.80;;;;;;;18.38;50.51;98109.63;7737923;32;39258;-78
2023/10/26 17:44:51;;;;;;;4.12;1.77;;;;;;;18.49;50.12;98114.53;7739131;32;40842;-79
2023/10/26 17:49:07;;;;;;;2.47;1.50;;;;;;;18.11;51.24;98116.97;7739000;32;37552;-79
2023/10/26 17:53:23;;;;;;;2.67;1.60;;;;;;;18.36;51.09;98111.94;7739187;32;37139;-78
2023/10/26 17:57:40;;;;;;;3.42;1.92;;;;;;;18.30;51.51;98107.06;7739163;32;39792;-79
2023/10/26 18:01:57;;;;;;;4.50;2.40;;;;;;;18.13;52.03;98089.03;7739001;32;40765;-80
2023/10/26 18:06:15;;;;;;;5.55;1.80;;;;;;;18.10;51.85;98095.28;7738914;32;37891;-80
2023/10/26 18:10:31;;;;;;;5.97;1.70;;;;;;;17.83;52.53;98089.56;7737325;32;37596;-79
2023/10/26 18:14:47;;;;;;;5.15;2.33;;;;;;;17.72;53.18;98097.59;7727704;32;39421;-79
2023/10/26 18:19:04;;;;;;;4.43;2.17;;;;;;;17.66;53.70;98096.31;7738563;32;40865;-79
2023/10/26 18:23:20;;;;;;;6.62;2.83;;;;;;;17.80;53.32;98115.09;7738149;32;38596;-80
2023/10/26 18:27:36;;;;;;;4.37;2.35;;;;;;;17.84;55.45;98100.22;7738576;32;37145;-80
2023/10/26 18:31:55;;;;;;;10.57;2.78;;;;;;;17.77;58.29;98107.56;7738778;32;39437;-79
2023/10/26 18:36:17;;;;;;;10.50;3.10;;;;;;;17.50;59.35;98107.34;7724693;32;40248;-80
2023/10/26 18:40:37;;;;;;;5.75;3.05;;;;;;;17.49;59.30;98099.44;7737930;32;38642;-79
2023/10/26 18:44:54;;;;;;;8.38;3.03;;;;;;;17.23;59.60;98076.84;7738285;32;37100;-79
2023/10/26 18:49:10;;;;;;;6.45;3.08;;;;;;;17.01;60.26;98108.56;7696107;32;39328;-80
2023/10/26 18:53:27;;;;;;;8.60;3.60;;;;;;;16.81;60.98;98129.66;7684697;32;40793;-78
2023/10/26 18:57:43;;;;;;;9.27;4.05;;;;;;;16.77;61.03;98126.00;7684606;32;37834;-79
2023/10/26 19:02:00;;;;;;;8.32;3.67;;;;;;;16.27;62.33;98136.47;7685103;32;38076;-79
2023/10/26 19:06:16;;;;;;;8.00;3.55;;;;;;;16.15;62.83;98126.31;7684649;32;39366;-79
2023/10/26 19:10:33;;;;;;;11.38;4.53;;;;;;;16.09;62.95;98122.22;7684626;32;40842;-79
2023/10/26 19:14:50;;;;;;;6.97;3.58;;;;;;;16.13;62.82;98105.81;7684801;32;38659;-79
2023/10/26 19:19:06;;;;;;;9.38;3.60;;;;;;;16.19;62.30;98092.62;7684616;32;37070;-80
2023/10/26 19:23:22;;;;;;;6.00;2.95;;;;;;;16.01;62.29;98065.44;7683893;32;39392;-80
2023/10/26 19:27:41;;;;;;;7.45;3.15;;;;;;;16.06;62.15;98067.16;7683704;32;41404;-82
2023/10/26 19:31:57;;;;;;;7.30;3.28;;;;;;;15.83;62.93;98058.63;7684345;32;37708;-81
2023/10/26 19:36:13;;;;;;;6.95;2.90;;;;;;;15.76;63.23;98061.97;7683770;32;37906;-81
2023/10/26 19:40:31;;;;;;;7.72;3.45;;;;;;;15.64;63.45;98062.78;7683074;32;39397;-81
2023/10/26 19:44:52;;;;;;;7.03;3.35;;;;;;;15.59;63.48;98071.25;7683912;32;40283;-81
2023/10/26 19:49:09;;;;;;;7.53;3.70;;;;;;;15.58;63.36;98070.47;7706870;32;38433;-81
2023/10/26 19:53:32;;;;;;;8.43;3.42;;;;;;;15.80;62.57;98059.31;7710807;32;37667;-80
2023/10/26 19:57:49;;;;;;;6.90;3.47;;;;;;;15.69;62.44;98046.03;7710662;32;39005;-81
2023/10/26 20:02:07;;;;;;;6.28;3.60;;;;;;;15.56;62.87;98044.50;7710647;32;40095;-80
2023/10/26 20:06:25;;;;;;;9.18;4.30;;;;;;;15.48;63.34;98050.91;7710396;32;37728;-81
2023/10/26 20:10:46;;;;;;;7.57;4.07;;;;;;;15.17;64.45;98049.59;7710497;32;36019;-81